createdAt,value
2019-03-23T00:09:02.418Z,9.10
2019-03-23T00:19:09.020Z,8.90
2019-03-23T00:29:14.578Z,8.90
2019-03-23T00:39:20.149Z,8.80
2019-03-23T00:49:25.658Z,8.50
2019-03-23T00:59:31.186Z,8.10
2019-03-23T01:09:36.703Z,7.70
2019-03-23T01:19:42.218Z,7.50
2019-03-23T01:29:47.755Z,7.20
2019-03-23T01:39:53.363Z,7.00
2019-03-23T01:49:58.886Z,6.80
2019-03-23T02:00:07.579Z,6.60
2019-03-23T02:10:13.808Z,6.70
2019-03-23T02:20:19.486Z,6.60
2019-03-23T02:30:25.115Z,6.40
2019-03-23T02:40:30.716Z,6.30
2019-03-23T02:50:36.361Z,6.30
2019-03-23T03:00:42.053Z,6.20
2019-03-23T03:10:47.709Z,6.20
2019-03-23T03:20:53.321Z,6.10
2019-03-23T03:30:58.927Z,6.00
2019-03-23T03:41:04.683Z,5.90
2019-03-23T03:51:10.324Z,5.70
2019-03-23T04:01:18.903Z,5.60
2019-03-23T04:11:24.622Z,5.70
2019-03-23T04:21:30.153Z,6.00
2019-03-23T04:31:35.716Z,6.20
2019-03-23T04:41:41.392Z,6.30
2019-03-23T04:51:47.035Z,6.20
2019-03-23T05:01:52.695Z,6.10
2019-03-23T05:11:58.240Z,6.10
2019-03-23T05:22:03.777Z,6.00
2019-03-23T05:32:09.370Z,6.00
2019-03-23T05:42:15.065Z,6.00
2019-03-23T05:52:20.703Z,6.10
2019-03-23T06:02:26.301Z,6.20
2019-03-23T06:12:31.839Z,6.60
2019-03-23T06:22:37.506Z,6.60
2019-03-23T06:32:43.035Z,6.70
2019-03-23T06:42:59.167Z,7.00
2019-03-23T06:52:56.173Z,7.20
2019-03-23T07:03:01.741Z,7.40
2019-03-23T07:13:08.687Z,7.70
2019-03-23T07:23:14.295Z,7.90
2019-03-23T07:33:19.797Z,9.50
2019-03-23T07:43:25.412Z,8.20
2019-03-23T07:53:31.920Z,8.40
2019-03-23T08:03:37.420Z,8.70
2019-03-23T08:13:44.035Z,9.30
2019-03-23T08:23:49.615Z,9.70
2019-03-23T08:33:55.125Z,10.10
2019-03-23T08:44:00.750Z,10.40
2019-03-23T08:54:06.275Z,10.70
2019-03-23T09:04:11.868Z,10.20
2019-03-23T09:14:17.461Z,10.30
2019-03-23T09:24:23.000Z,10.50
2019-03-23T09:34:28.599Z,10.70
2019-03-23T09:44:34.235Z,11.60
2019-03-23T09:54:39.929Z,11.70
2019-03-23T10:04:45.411Z,12.20
2019-03-23T10:14:50.925Z,12.70
2019-03-23T10:24:56.472Z,13.30
2019-03-23T10:35:01.979Z,14.00
2019-03-23T10:45:09.000Z,14.00
2019-03-23T10:55:14.694Z,14.30
2019-03-23T11:05:20.234Z,14.70
2019-03-23T11:15:25.875Z,15.30
2019-03-23T11:25:31.441Z,15.40
2019-03-23T11:35:37.008Z,16.10
2019-03-23T11:45:42.640Z,16.80
2019-03-23T11:55:48.216Z,17.10
2019-03-23T12:05:53.712Z,17.40
2019-03-23T12:15:59.361Z,17.60
2019-03-23T12:26:04.877Z,18.00
2019-03-23T12:36:10.448Z,18.40
2019-03-23T12:46:16.051Z,18.90
2019-03-23T12:56:21.644Z,19.10
2019-03-23T13:06:27.213Z,19.10
2019-03-23T13:16:32.794Z,19.20
2019-03-23T13:26:38.269Z,19.80
2019-03-23T13:36:43.779Z,20.20
2019-03-23T13:46:49.289Z,20.10
2019-03-23T13:56:55.308Z,19.50
2019-03-23T14:07:01.554Z,20.20
2019-03-23T14:17:07.129Z,20.30
2019-03-23T14:27:13.314Z,20.70
2019-03-23T14:37:19.325Z,20.40
2019-03-23T14:47:24.993Z,20.70
2019-03-23T14:57:30.482Z,20.50
2019-03-23T15:07:35.977Z,20.80
2019-03-23T15:17:48.730Z,21.00
2019-03-23T15:27:48.674Z,21.00
2019-03-23T15:37:54.259Z,21.10
2019-03-23T15:47:59.841Z,20.80
2019-03-23T15:58:05.435Z,20.40
2019-03-23T16:08:11.161Z,20.20
2019-03-23T16:18:16.837Z,20.00
2019-03-23T16:28:22.466Z,19.90
2019-03-23T16:38:28.285Z,19.20
2019-03-23T16:48:34.228Z,18.60
2019-03-23T16:58:39.857Z,17.90
2019-03-23T17:08:45.862Z,17.40
2019-03-23T17:18:51.628Z,16.80
2019-03-23T17:28:58.776Z,16.20
2019-03-23T17:39:06.148Z,15.90
2019-03-23T17:49:13.853Z,15.40
2019-03-23T17:59:19.809Z,14.90
2019-03-23T18:09:25.753Z,15.20
2019-03-23T18:19:31.875Z,14.00
2019-03-23T18:29:39.317Z,13.70
2019-03-23T18:39:50.734Z,13.40
2019-03-23T18:49:58.412Z,13.30
2019-03-23T19:00:08.571Z,13.20
2019-03-23T19:10:15.970Z,12.90
2019-03-23T19:20:21.998Z,12.50
2019-03-23T19:30:27.824Z,12.20
2019-03-23T19:40:38.596Z,12.10
2019-03-23T19:50:44.817Z,12.20
2019-03-23T20:00:52.556Z,12.20
2019-03-23T20:10:58.874Z,12.00
2019-03-23T20:21:09.244Z,11.90
2019-03-23T20:31:19.705Z,12.00
2019-03-23T20:41:30.306Z,12.00
2019-03-23T20:51:39.405Z,12.00
2019-03-23T21:01:45.345Z,11.90
2019-03-23T21:11:51.365Z,11.70
2019-03-23T21:21:58.775Z,11.60
2019-03-23T21:32:17.069Z,11.50
2019-03-23T21:42:24.321Z,11.30
2019-03-23T21:52:30.197Z,11.30
2019-03-23T22:02:37.847Z,11.30
2019-03-23T22:12:43.168Z,11.10
2019-03-23T22:22:48.818Z,10.90
2019-03-23T22:32:55.354Z,10.70
2019-03-23T22:43:00.955Z,10.60
2019-03-23T22:53:06.514Z,10.60
2019-03-23T23:03:13.579Z,10.70
2019-03-23T23:13:19.100Z,10.40
2019-03-23T23:23:24.740Z,10.50
2019-03-23T23:33:30.375Z,10.50
2019-03-23T23:43:36.093Z,10.30
2019-03-23T23:53:41.739Z,10.40
